Time;durP1;ratioP1;P1;durP2;ratioP2;P2;SDS_P1;SDS_P2;PMS_P1;PMS_P2;Temp;Humidity;BMP_temperature;BMP_pressure;BME280_temperature;BME280_humidity;BME280_pressure;Samples;Min_cycle;Max_cycle;Signal;HPM_P1;HPM_P2
2023/06/10 00:01:17;;;;;;;;;25.67;25.67;;;;;;;;5061246;28;45359;-76
2023/06/10 00:03:43;;;;;;;;;18.33;17.33;;;;;;;;5062196;28;45328;-76
2023/06/10 00:06:08;;;;;;;;;23.67;20.67;;;;;;;;5061817;28;45370;-76
2023/06/10 00:08:33;;;;;;;;;23.33;21.33;;;;;;;;5061828;28;45447;-76
2023/06/10 00:10:58;;;;;;;;;22.00;22.00;;;;;;;;5061688;28;45333;-76
2023/06/10 00:13:24;;;;;;;;;23.33;22.00;;;;;;;;5062017;28;45339;-75
2023/06/10 00:15:49;;;;;;;;;19.33;19.33;;;;;;;;5061848;28;45298;-76
2023/06/10 00:18:15;;;;;;;;;19.00;17.67;;;;;;;;5061723;28;45421;-76
2023/06/10 00:20:40;;;;;;;;;23.33;23.33;;;;;;;;5061698;28;45224;-76
2023/06/10 00:23:08;;;;;;;;;24.00;22.67;;;;;;;;5061901;28;45228;-76
2023/06/10 00:25:33;;;;;;;;;21.00;21.00;;;;;;;;5061445;28;45350;-76
2023/06/10 00:27:58;;;;;;;;;24.67;22.67;;;;;;;;5061343;28;45468;-76
2023/06/10 00:30:23;;;;;;;;;17.67;17.67;;;;;;;;5059511;28;45327;-76
2023/06/10 00:32:49;;;;;;;;;20.67;20.67;;;;;;;;5061079;28;45650;-76
2023/06/10 00:35:14;;;;;;;;;22.33;19.00;;;;;;;;5061439;28;45464;-76
2023/06/10 00:37:39;;;;;;;;;17.67;17.67;;;;;;;;5061279;28;46252;-76
2023/06/10 00:40:05;;;;;;;;;19.00;19.00;;;;;;;;5061435;28;45596;-76
2023/06/10 00:42:30;;;;;;;;;16.33;16.33;;;;;;;;5060169;28;45454;-76
2023/06/10 00:44:56;;;;;;;;;21.00;21.00;;;;;;;;5061265;28;45599;-76
2023/06/10 00:47:21;;;;;;;;;22.67;21.00;;;;;;;;5061479;28;45361;-76
2023/06/10 00:49:47;;;;;;;;;18.33;18.00;;;;;;;;5061246;28;45328;-76
2023/06/10 00:52:13;;;;;;;;;19.00;19.00;;;;;;;;5061279;28;45349;-76
2023/06/10 00:54:39;;;;;;;;;19.00;18.33;;;;;;;;5061089;28;45326;-77
2023/06/10 00:57:05;;;;;;;;;18.67;18.33;;;;;;;;5060903;28;45375;-76
2023/06/10 00:59:30;;;;;;;;;19.00;18.67;;;;;;;;5061153;28;45208;-75
2023/06/10 01:01:59;;;;;;;;;20.33;19.67;;;;;;;;5061083;28;45316;-76
2023/06/10 01:04:24;;;;;;;;;16.67;16.67;;;;;;;;5061039;28;45310;-76
2023/06/10 01:06:52;;;;;;;;;21.00;19.00;;;;;;;;5060886;28;45461;-76
2023/06/10 01:09:44;;;;;;;;;16.33;15.67;;;;;;;;5061074;28;45260;-76
2023/06/10 01:12:09;;;;;;;;;17.00;16.67;;;;;;;;5051978;28;45364;-76
2023/06/10 01:14:35;;;;;;;;;17.67;17.00;;;;;;;;5060859;28;45506;-76
2023/06/10 01:17:01;;;;;;;;;16.00;16.00;;;;;;;;5060860;28;45401;-76
2023/06/10 01:19:26;;;;;;;;;15.67;15.67;;;;;;;;5060830;28;45270;-76
2023/06/10 01:21:51;;;;;;;;;16.67;15.00;;;;;;;;5060894;28;45329;-76
2023/06/10 01:24:19;;;;;;;;;17.00;15.33;;;;;;;;5060671;28;45290;-76
2023/06/10 01:26:46;;;;;;;;;15.67;14.00;;;;;;;;5060459;28;46078;-76
2023/06/10 01:29:14;;;;;;;;;13.00;13.00;;;;;;;;5060672;28;45170;-76
2023/06/10 01:31:49;;;;;;;;;14.00;13.00;;;;;;;;5060634;28;45584;-76
2023/06/10 01:34:16;;;;;;;;;12.67;12.00;;;;;;;;5060554;28;45197;-76
2023/06/10 01:36:45;;;;;;;;;17.00;17.00;;;;;;;;5060267;28;46447;-76
2023/06/10 01:39:11;;;;;;;;;14.00;12.33;;;;;;;;5060106;28;45338;-76
2023/06/10 01:41:37;;;;;;;;;16.33;15.67;;;;;;;;5060366;28;45259;-76
2023/06/10 01:44:02;;;;;;;;;13.67;13.67;;;;;;;;5060312;28;45456;-76
2023/06/10 01:46:27;;;;;;;;;15.33;15.33;;;;;;;;5060258;28;45233;-76
2023/06/10 01:48:53;;;;;;;;;16.67;16.67;;;;;;;;5060469;28;45216;-76
2023/06/10 01:51:18;;;;;;;;;13.33;13.33;;;;;;;;5060348;28;45500;-76
2023/06/10 01:53:43;;;;;;;;;14.67;14.67;;;;;;;;5060271;28;45204;-76
2023/06/10 01:56:08;;;;;;;;;13.33;13.33;;;;;;;;5060077;28;45226;-76
2023/06/10 01:58:33;;;;;;;;;13.00;13.00;;;;;;;;5060267;28;45386;-76
2023/06/10 02:00:59;;;;;;;;;13.00;13.00;;;;;;;;5060466;28;45217;-76
2023/06/10 02:03:24;;;;;;;;;12.67;12.67;;;;;;;;5060233;28;45517;-76
2023/06/10 02:05:49;;;;;;;;;15.67;15.00;;;;;;;;5059942;28;45917;-77
2023/06/10 02:08:14;;;;;;;;;15.67;15.67;;;;;;;;5060073;28;45366;-76
2023/06/10 02:10:40;;;;;;;;;13.00;13.00;;;;;;;;5059997;28;45479;-76
2023/06/10 02:13:05;;;;;;;;;15.00;14.33;;;;;;;;5059973;28;45345;-76
2023/06/10 02:15:31;;;;;;;;;13.67;13.67;;;;;;;;5059996;28;45426;-76
2023/06/10 02:17:56;;;;;;;;;13.67;13.67;;;;;;;;5059951;28;45297;-76
2023/06/10 02:20:21;;;;;;;;;15.00;14.00;;;;;;;;5060015;28;45217;-76
2023/06/10 02:22:46;;;;;;;;;14.67;13.67;;;;;;;;5059369;28;45567;-76
2023/06/10 02:25:12;;;;;;;;;15.00;15.00;;;;;;;;5059720;28;45858;-76
2023/06/10 02:27:37;;;;;;;;;14.33;14.33;;;;;;;;5059901;28;45386;-76
2023/06/10 02:30:02;;;;;;;;;9.33;9.33;;;;;;;;5059691;28;45455;-76
2023/06/10 02:32:28;;;;;;;;;14.67;14.67;;;;;;;;5059798;28;45459;-76
2023/06/10 02:34:53;;;;;;;;;13.00;13.00;;;;;;;;5059705;28;45354;-76
2023/06/10 02:37:18;;;;;;;;;13.67;13.33;;;;;;;;5058598;28;45346;-76
2023/06/10 02:39:43;;;;;;;;;11.67;11.67;;;;;;;;5059169;28;45308;-75
2023/06/10 02:42:09;;;;;;;;;11.33;11.33;;;;;;;;5058256;28;45621;-77
2023/06/10 02:44:35;;;;;;;;;11.67;11.67;;;;;;;;5059609;28;45478;-76
2023/06/10 02:47:00;;;;;;;;;13.67;13.67;;;;;;;;5059567;28;45345;-76
2023/06/10 02:49:27;;;;;;;;;12.00;12.00;;;;;;;;5059709;28;45290;-76
2023/06/10 02:51:53;;;;;;;;;15.00;15.00;;;;;;;;5059269;28;45489;-76
2023/06/10 02:54:19;;;;;;;;;15.00;15.00;;;;;;;;5059284;28;45286;-76
2023/06/10 02:56:45;;;;;;;;;14.33;13.67;;;;;;;;5059231;28;45393;-76
2023/06/10 02:59:10;;;;;;;;;13.67;13.67;;;;;;;;5059505;28;45480;-76
2023/06/10 03:01:37;;;;;;;;;12.67;12.67;;;;;;;;5059240;28;45339;-75
2023/06/10 03:04:03;;;;;;;;;13.67;12.67;;;;;;;;5059186;28;45411;-76
2023/06/10 03:06:29;;;;;;;;;13.33;13.00;;;;;;;;5059122;28;45441;-76
2023/06/10 03:08:54;;;;;;;;;12.00;12.00;;;;;;;;5059447;28;45354;-76
2023/06/10 03:11:20;;;;;;;;;12.67;12.67;;;;;;;;5059133;28;45386;-75
2023/06/10 03:13:45;;;;;;;;;12.00;11.00;;;;;;;;5059073;28;46341;-76
2023/06/10 03:16:12;;;;;;;;;13.67;13.67;;;;;;;;5059236;28;45273;-76
2023/06/10 03:18:37;;;;;;;;;12.00;11.67;;;;;;;;5059271;28;45228;-76
2023/06/10 03:21:03;;;;;;;;;10.00;10.00;;;;;;;;5059061;28;45522;-76
2023/06/10 03:23:28;;;;;;;;;12.33;12.00;;;;;;;;5059129;28;45335;-76
2023/06/10 03:25:54;;;;;;;;;13.67;12.67;;;;;;;;5058952;28;45768;-76
2023/06/10 03:28:20;;;;;;;;;12.67;11.67;;;;;;;;5059190;28;45438;-76
2023/06/10 03:30:46;;;;;;;;;11.00;11.00;;;;;;;;5058975;28;45345;-76
2023/06/10 03:33:11;;;;;;;;;10.33;9.00;;;;;;;;5057547;28;46171;-76
2023/06/10 03:35:36;;;;;;;;;13.67;13.67;;;;;;;;5060437;28;45263;-76
2023/06/10 03:38:01;;;;;;;;;12.33;11.33;;;;;;;;5062295;28;45438;-76
2023/06/10 03:40:26;;;;;;;;;13.00;12.00;;;;;;;;5061958;28;45462;-76
2023/06/10 03:42:52;;;;;;;;;11.00;10.67;;;;;;;;5062380;28;46751;-76
2023/06/10 03:45:17;;;;;;;;;13.00;12.00;;;;;;;;5062453;28;45356;-76
2023/06/10 03:47:43;;;;;;;;;12.33;12.00;;;;;;;;5062515;28;45366;-76
2023/06/10 03:50:08;;;;;;;;;13.00;12.67;;;;;;;;5062243;28;45334;-76
2023/06/10 03:52:35;;;;;;;;;12.67;12.67;;;;;;;;5062018;28;45411;-76
2023/06/10 03:55:00;;;;;;;;;8.67;8.67;;;;;;;;5062316;28;45367;-75
2023/06/10 03:57:26;;;;;;;;;10.00;10.00;;;;;;;;5062126;28;45339;-75
2023/06/10 03:59:51;;;;;;;;;11.00;11.00;;;;;;;;5062133;28;45241;-76
2023/06/10 04:02:16;;;;;;;;;13.00;12.00;;;;;;;;5062019;28;46043;-75
2023/06/10 04:04:42;;;;;;;;;12.00;12.00;;;;;;;;5062130;28;45287;-75
2023/06/10 04:07:08;;;;;;;;;10.67;10.67;;;;;;;;5062005;28;45568;-76
2023/06/10 04:09:33;;;;;;;;;12.67;12.33;;;;;;;;5061984;28;45342;-76
2023/06/10 04:11:59;;;;;;;;;11.00;11.00;;;;;;;;5061530;28;46039;-77
2023/06/10 04:14:24;;;;;;;;;12.50;10.50;;;;;;;;5061973;28;45235;-76
2023/06/10 04:16:50;;;;;;;;;9.67;9.00;;;;;;;;5062086;28;45319;-76
2023/06/10 04:19:15;;;;;;;;;10.33;10.33;;;;;;;;5061854;28;45317;-76
2023/06/10 04:21:40;;;;;;;;;14.00;11.33;;;;;;;;5061600;28;45465;-76
2023/06/10 04:24:05;;;;;;;;;12.33;11.00;;;;;;;;5061798;28;45390;-76
2023/06/10 04:26:30;;;;;;;;;12.33;11.67;;;;;;;;5061650;28;45421;-76
2023/06/10 04:28:56;;;;;;;;;13.67;12.67;;;;;;;;5061607;28;45398;-76
2023/06/10 04:31:21;;;;;;;;;10.67;10.67;;;;;;;;5061505;28;45273;-76
2023/06/10 04:33:46;;;;;;;;;10.33;10.33;;;;;;;;5061680;28;45472;-77
2023/06/10 04:36:11;;;;;;;;;10.00;9.33;;;;;;;;5061584;28;45352;-77
2023/06/10 04:38:36;;;;;;;;;11.00;11.00;;;;;;;;5061287;28;45229;-76
2023/06/10 04:41:02;;;;;;;;;11.00;11.00;;;;;;;;5061001;28;45488;-76
2023/06/10 04:43:28;;;;;;;;;13.33;12.67;;;;;;;;5061561;28;45291;-76
2023/06/10 04:45:53;;;;;;;;;12.00;10.00;;;;;;;;5061153;28;45341;-76
2023/06/10 04:48:18;;;;;;;;;11.67;11.33;;;;;;;;5061310;28;45299;-76
2023/06/10 04:50:44;;;;;;;;;13.00;13.00;;;;;;;;5061073;28;46363;-76
2023/06/10 04:53:09;;;;;;;;;12.00;11.00;;;;;;;;5061374;28;45254;-76
2023/06/10 04:55:34;;;;;;;;;12.33;10.00;;;;;;;;5061325;28;45315;-76
2023/06/10 04:57:59;;;;;;;;;13.33;11.67;;;;;;;;5059827;28;46284;-75
2023/06/10 05:00:25;;;;;;;;;10.33;10.33;;;;;;;;5061097;28;45294;-76
2023/06/10 05:02:51;;;;;;;;;10.67;10.67;;;;;;;;5061120;28;45187;-75
2023/06/10 05:05:17;;;;;;;;;11.33;10.67;;;;;;;;5061222;28;45236;-76
2023/06/10 05:07:42;;;;;;;;;11.33;11.33;;;;;;;;5060996;28;45207;-76
2023/06/10 05:10:07;;;;;;;;;10.00;9.00;;;;;;;;5060735;28;46119;-75
2023/06/10 05:12:32;;;;;;;;;8.33;8.33;;;;;;;;5060991;28;45192;-76
2023/06/10 05:14:57;;;;;;;;;10.33;10.33;;;;;;;;5061152;28;45584;-76
2023/06/10 05:17:23;;;;;;;;;10.00;9.67;;;;;;;;5060973;28;45363;-75
2023/06/10 05:19:48;;;;;;;;;10.67;10.67;;;;;;;;5060858;28;46175;-76
2023/06/10 05:22:14;;;;;;;;;11.33;10.33;;;;;;;;5060732;28;45366;-76
2023/06/10 05:24:39;;;;;;;;;9.33;9.33;;;;;;;;5060981;28;45462;-76
2023/06/10 05:27:06;;;;;;;;;11.00;11.00;;;;;;;;5060596;28;45353;-76
2023/06/10 05:29:31;;;;;;;;;9.00;9.00;;;;;;;;5060484;28;46160;-76
2023/06/10 05:32:00;;;;;;;;;10.00;10.00;;;;;;;;5060620;28;45299;-76
2023/06/10 05:34:25;;;;;;;;;9.00;9.00;;;;;;;;5060686;28;45358;-77
2023/06/10 05:36:50;;;;;;;;;10.00;10.00;;;;;;;;5060453;28;45203;-76
2023/06/10 05:39:15;;;;;;;;;10.00;9.67;;;;;;;;5060233;28;45451;-76
2023/06/10 05:41:41;;;;;;;;;10.33;9.67;;;;;;;;5054232;28;45316;-78
2023/06/10 05:44:06;;;;;;;;;10.67;9.00;;;;;;;;5045643;28;45576;-77
2023/06/10 05:46:31;;;;;;;;;9.00;9.00;;;;;;;;5049979;28;46307;-77
2023/06/10 05:48:56;;;;;;;;;8.33;7.67;;;;;;;;5056532;28;45276;-78
2023/06/10 05:51:21;;;;;;;;;10.67;9.67;;;;;;;;5060278;28;45191;-76
2023/06/10 05:53:47;;;;;;;;;9.00;8.67;;;;;;;;5060521;28;45315;-76
2023/06/10 05:56:13;;;;;;;;;11.00;11.00;;;;;;;;5060354;28;45482;-76
2023/06/10 05:58:38;;;;;;;;;9.33;9.00;;;;;;;;5060125;28;46281;-76
2023/06/10 06:01:03;;;;;;;;;9.00;9.00;;;;;;;;5060993;28;45202;-77
2023/06/10 06:03:28;;;;;;;;;9.33;9.33;;;;;;;;5060708;28;45179;-78
2023/06/10 06:05:54;;;;;;;;;9.00;8.00;;;;;;;;5060456;28;45250;-79
2023/06/10 06:08:19;;;;;;;;;9.67;9.67;;;;;;;;5060744;28;45531;-77
2023/06/10 06:10:44;;;;;;;;;10.33;9.00;;;;;;;;5060260;28;45259;-76
2023/06/10 06:13:09;;;;;;;;;9.67;9.00;;;;;;;;5061501;28;45236;-77
2023/06/10 06:15:35;;;;;;;;;7.67;7.67;;;;;;;;5060734;28;45560;-77
2023/06/10 06:18:00;;;;;;;;;9.33;9.00;;;;;;;;5061972;28;45527;-76
2023/06/10 06:20:25;;;;;;;;;10.00;10.00;;;;;;;;5060709;28;45302;-76
2023/06/10 06:22:50;;;;;;;;;8.67;8.67;;;;;;;;5060567;28;45291;-76
2023/06/10 06:25:15;;;;;;;;;9.67;9.00;;;;;;;;5060680;28;45547;-76
2023/06/10 06:27:41;;;;;;;;;6.67;6.67;;;;;;;;5060228;28;46148;-76
2023/06/10 06:30:06;;;;;;;;;8.00;8.00;;;;;;;;5058944;28;45329;-76
2023/06/10 06:32:31;;;;;;;;;10.00;8.33;;;;;;;;5059678;28;45360;-75
2023/06/10 06:34:57;;;;;;;;;8.33;8.33;;;;;;;;5059004;28;45505;-75
2023/06/10 06:37:23;;;;;;;;;8.00;7.33;;;;;;;;5059877;28;45418;-74
2023/06/10 06:39:49;;;;;;;;;7.67;7.67;;;;;;;;5059446;28;45372;-75
2023/06/10 06:42:15;;;;;;;;;13.00;13.00;;;;;;;;5059687;28;45332;-75
2023/06/10 06:44:40;;;;;;;;;7.67;7.67;;;;;;;;5059563;28;45219;-75
2023/06/10 06:47:05;;;;;;;;;7.67;7.67;;;;;;;;5059357;28;45284;-75
2023/06/10 06:49:30;;;;;;;;;8.33;8.00;;;;;;;;5044497;28;45438;-75
2023/06/10 06:51:55;;;;;;;;;9.00;9.00;;;;;;;;5039272;28;45315;-75
2023/06/10 06:54:21;;;;;;;;;8.33;8.33;;;;;;;;5039202;28;45312;-75
2023/06/10 06:56:46;;;;;;;;;7.00;7.00;;;;;;;;5039056;28;45474;-75
2023/06/10 06:59:13;;;;;;;;;8.33;8.00;;;;;;;;5039196;28;45253;-75
2023/06/10 07:01:39;;;;;;;;;10.00;6.67;;;;;;;;5039543;28;45301;-75
2023/06/10 07:04:04;;;;;;;;;10.00;10.00;;;;;;;;5042342;28;45507;-75
2023/06/10 07:06:29;;;;;;;;;7.00;7.00;;;;;;;;5039037;28;45268;-74
2023/06/10 07:08:54;;;;;;;;;9.67;6.67;;;;;;;;5041996;28;45437;-75
2023/06/10 07:11:20;;;;;;;;;7.33;7.33;;;;;;;;5055259;28;45374;-77
2023/06/10 07:13:45;;;;;;;;;8.00;8.00;;;;;;;;5060885;28;45409;-76
2023/06/10 07:16:10;;;;;;;;;8.00;8.00;;;;;;;;5062737;28;46028;-75
2023/06/10 07:18:36;;;;;;;;;8.00;8.00;;;;;;;;5062771;28;45294;-74
2023/06/10 07:21:01;;;;;;;;;7.67;7.00;;;;;;;;5062764;28;45399;-75
2023/06/10 07:23:26;;;;;;;;;5.00;5.00;;;;;;;;5062689;28;45240;-75
2023/06/10 07:25:52;;;;;;;;;8.00;8.00;;;;;;;;5058275;28;45404;-76
2023/06/10 07:28:17;;;;;;;;;9.33;7.67;;;;;;;;5062558;28;45308;-75
2023/06/10 07:30:42;;;;;;;;;7.67;7.67;;;;;;;;5062563;28;45319;-74
2023/06/10 07:33:07;;;;;;;;;8.33;8.33;;;;;;;;5045818;28;45410;-75
2023/06/10 07:35:32;;;;;;;;;7.33;7.33;;;;;;;;5042298;28;45438;-75
2023/06/10 07:37:58;;;;;;;;;7.00;7.00;;;;;;;;5042151;28;45249;-76
2023/06/10 07:40:23;;;;;;;;;7.00;7.00;;;;;;;;5044603;28;45368;-75
2023/06/10 07:42:49;;;;;;;;;6.67;6.67;;;;;;;;5055585;28;45448;-76
2023/06/10 07:45:14;;;;;;;;;6.00;6.00;;;;;;;;5061368;28;45954;-77
2023/06/10 07:47:41;;;;;;;;;6.33;6.33;;;;;;;;5061712;28;45167;-78
2023/06/10 07:50:06;;;;;;;;;5.67;5.67;;;;;;;;5058493;28;45654;-75
2023/06/10 07:52:31;;;;;;;;;5.33;5.33;;;;;;;;5051122;28;45531;-74
2023/06/10 07:54:57;;;;;;;;;6.33;6.00;;;;;;;;5059104;28;45874;-74
2023/06/10 07:57:22;;;;;;;;;6.33;6.33;;;;;;;;5061661;28;45292;-77
2023/06/10 07:59:47;;;;;;;;;7.00;7.00;;;;;;;;5061740;28;45540;-76
2023/06/10 08:02:12;;;;;;;;;7.00;6.67;;;;;;;;5056303;28;45201;-75
2023/06/10 08:04:38;;;;;;;;;5.00;5.00;;;;;;;;5048821;28;45593;-75
2023/06/10 08:07:03;;;;;;;;;7.33;7.00;;;;;;;;5055984;28;45457;-76
2023/06/10 08:09:28;;;;;;;;;7.00;7.00;;;;;;;;5049878;28;45431;-75
2023/06/10 08:11:53;;;;;;;;;6.00;6.00;;;;;;;;5042417;28;45532;-76
2023/06/10 08:14:19;;;;;;;;;6.67;6.00;;;;;;;;5042194;28;45414;-76
2023/06/10 08:16:44;;;;;;;;;6.00;6.00;;;;;;;;5042861;28;45209;-75
2023/06/10 08:19:10;;;;;;;;;7.67;6.67;;;;;;;;5042269;28;45208;-75
2023/06/10 08:21:37;;;;;;;;;7.00;7.00;;;;;;;;5041278;28;45397;-75
2023/06/10 08:24:02;;;;;;;;;7.67;7.33;;;;;;;;5041768;28;45384;-77
2023/06/10 08:26:27;;;;;;;;;5.67;5.67;;;;;;;;5042328;28;45973;-76
2023/06/10 08:28:54;;;;;;;;;6.00;6.00;;;;;;;;5047019;28;45423;-76
2023/06/10 08:31:19;;;;;;;;;7.00;7.00;;;;;;;;5062679;28;45315;-76
2023/06/10 08:33:44;;;;;;;;;6.67;6.67;;;;;;;;5061987;28;46566;-75
2023/06/10 08:36:09;;;;;;;;;7.00;7.00;;;;;;;;5061844;28;45244;-75
2023/06/10 08:38:34;;;;;;;;;6.67;6.67;;;;;;;;5061777;28;45370;-75
2023/06/10 08:41:00;;;;;;;;;5.33;5.33;;;;;;;;5061423;28;45468;-76
2023/06/10 08:43:28;;;;;;;;;6.33;5.00;;;;;;;;5045598;28;45940;-77
2023/06/10 08:45:54;;;;;;;;;5.00;5.00;;;;;;;;5045320;28;45382;-76
2023/06/10 08:48:20;;;;;;;;;7.00;6.33;;;;;;;;5050653;28;45367;-75
2023/06/10 08:50:46;;;;;;;;;8.67;8.00;;;;;;;;5060980;28;45291;-76
2023/06/10 08:53:13;;;;;;;;;6.67;6.67;;;;;;;;5051373;28;46336;-75
2023/06/10 08:55:41;;;;;;;;;7.67;5.67;;;;;;;;5050757;28;45790;-77
2023/06/10 08:58:07;;;;;;;;;7.00;6.00;;;;;;;;5045940;28;45494;-76
2023/06/10 09:00:32;;;;;;;;;7.00;7.00;;;;;;;;5050797;28;45236;-79
2023/06/10 09:02:58;;;;;;;;;7.00;7.00;;;;;;;;5052540;28;45315;-76
2023/06/10 09:05:24;;;;;;;;;7.00;7.00;;;;;;;;5051471;28;45311;-77
2023/06/10 09:07:51;;;;;;;;;6.00;5.00;;;;;;;;5049590;28;45276;-77
2023/06/10 09:10:17;;;;;;;;;7.33;7.33;;;;;;;;5050848;28;45374;-78
2023/06/10 09:12:42;;;;;;;;;7.00;6.33;;;;;;;;5049409;28;47867;-77
2023/06/10 09:15:08;;;;;;;;;7.00;6.75;;;;;;;;5046209;28;45343;-77
2023/06/10 09:17:33;;;;;;;;;6.00;6.00;;;;;;;;5044633;28;45443;-76
2023/06/10 09:20:02;;;;;;;;;8.00;6.67;;;;;;;;5040279;28;45304;-76
2023/06/10 09:22:28;;;;;;;;;6.33;6.00;;;;;;;;5039706;28;46130;-77
2023/06/10 09:25:05;;;;;;;;;6.75;6.75;;;;;;;;5039748;28;45297;-77
2023/06/10 09:27:31;;;;;;;;;6.00;5.67;;;;;;;;5039720;28;45309;-78
2023/06/10 09:29:57;;;;;;;;;4.00;3.67;;;;;;;;5053656;28;45342;-77
2023/06/10 09:32:23;;;;;;;;;5.00;4.00;;;;;;;;5058772;28;45327;-78
2023/06/10 09:34:49;;;;;;;;;7.00;6.00;;;;;;;;5059123;28;45553;-77
2023/06/10 09:37:21;;;;;;;;;5.00;5.00;;;;;;;;5054997;28;45557;-76
2023/06/10 09:40:04;;;;;;;;;7.00;7.00;;;;;;;;5039559;28;45384;-77
2023/06/10 09:42:32;;;;;;;;;7.67;7.67;;;;;;;;5039886;28;46078;-77
2023/06/10 09:44:57;;;;;;;;;7.00;7.00;;;;;;;;5039399;28;45424;-76
2023/06/10 09:47:22;;;;;;;;;7.67;7.67;;;;;;;;5039289;28;45291;-76
2023/06/10 09:49:48;;;;;;;;;6.33;6.33;;;;;;;;5039911;28;45407;-75
2023/06/10 09:52:13;;;;;;;;;7.00;6.67;;;;;;;;5039498;28;45394;-76
2023/06/10 09:54:38;;;;;;;;;7.75;6.75;;;;;;;;5042741;28;45406;-75
2023/06/10 09:57:07;;;;;;;;;8.00;8.00;;;;;;;;5038291;28;45281;-74
2023/06/10 09:59:34;;;;;;;;;8.67;8.33;;;;;;;;5039654;28;45295;-75
2023/06/10 10:02:00;;;;;;;;;9.67;9.67;;;;;;;;5039569;28;45362;-74
2023/06/10 10:04:26;;;;;;;;;9.33;7.33;;;;;;;;5038417;28;45422;-76
2023/06/10 10:06:51;;;;;;;;;9.00;8.33;;;;;;;;5039452;28;45407;-77
2023/06/10 10:09:16;;;;;;;;;8.33;8.33;;;;;;;;5059223;28;45436;-74
2023/06/10 10:11:43;;;;;;;;;8.00;6.33;;;;;;;;5055891;28;45879;-76
2023/06/10 10:14:08;;;;;;;;;9.00;9.00;;;;;;;;5059481;28;45401;-77
2023/06/10 10:16:38;;;;;;;;;8.33;8.00;;;;;;;;5059375;28;45375;-75
2023/06/10 10:19:07;;;;;;;;;8.33;8.33;;;;;;;;5058902;28;45303;-77
2023/06/10 10:21:35;;;;;;;;;8.00;8.00;;;;;;;;5059402;28;45402;-74
2023/06/10 10:24:17;;;;;;;;;9.67;9.67;;;;;;;;5059006;28;45359;-74
2023/06/10 10:26:43;;;;;;;;;9.00;9.00;;;;;;;;5059061;28;45262;-77
2023/06/10 10:29:16;;;;;;;;;8.00;8.00;;;;;;;;5058641;28;45401;-78
2023/06/10 10:31:44;;;;;;;;;6.33;6.33;;;;;;;;5058962;28;46442;-77
2023/06/10 10:34:13;;;;;;;;;7.67;7.67;;;;;;;;5059647;28;45336;-76
2023/06/10 10:36:38;;;;;;;;;8.33;8.33;;;;;;;;5059813;28;45275;-78
2023/06/10 10:39:04;;;;;;;;;8.00;8.00;;;;;;;;5059371;28;45239;-77
2023/06/10 10:41:30;;;;;;;;;8.00;8.00;;;;;;;;5059148;28;45288;-75
2023/06/10 10:43:56;;;;;;;;;8.67;8.67;;;;;;;;5059408;28;45685;-75
2023/06/10 10:46:21;;;;;;;;;8.00;8.00;;;;;;;;5059819;28;45385;-77
2023/06/10 10:48:51;;;;;;;;;9.00;8.33;;;;;;;;5059626;28;45264;-77
2023/06/10 10:51:16;;;;;;;;;10.33;9.33;;;;;;;;5059340;28;45260;-76
2023/06/10 10:53:44;;;;;;;;;9.67;8.67;;;;;;;;5059487;28;45417;-76
2023/06/10 10:56:13;;;;;;;;;6.67;6.67;;;;;;;;5052313;28;45351;-75
2023/06/10 10:58:38;;;;;;;;;7.33;7.33;;;;;;;;5053988;28;45492;-77
2023/06/10 11:01:14;;;;;;;;;7.00;7.00;;;;;;;;5059236;28;45382;-77
2023/06/10 11:03:46;;;;;;;;;7.67;7.67;;;;;;;;5057775;28;45437;-78
2023/06/10 11:06:13;;;;;;;;;8.67;8.67;;;;;;;;5040620;28;45650;-77
2023/06/10 11:08:41;;;;;;;;;8.00;7.33;;;;;;;;5047436;28;45309;-77
2023/06/10 11:11:20;;;;;;;;;5.67;5.33;;;;;;;;5048241;28;45569;-78
2023/06/10 11:14:01;;;;;;;;;7.00;7.00;;;;;;;;5046434;28;45806;-78
2023/06/10 11:16:27;;;;;;;;;8.00;8.00;;;;;;;;5048590;28;45658;-78
2023/06/10 11:18:55;;;;;;;;;7.00;7.00;;;;;;;;5052904;28;45391;-78
2023/06/10 11:21:22;;;;;;;;;8.67;7.67;;;;;;;;5057835;28;45363;-76
2023/06/10 11:23:49;;;;;;;;;8.33;8.00;;;;;;;;5045001;28;45504;-77
2023/06/10 11:26:20;;;;;;;;;6.67;6.33;;;;;;;;5038385;28;45490;-76
2023/06/10 11:28:45;;;;;;;;;9.33;9.33;;;;;;;;5042453;28;45308;-78
2023/06/10 11:31:27;;;;;;;;;8.67;8.67;;;;;;;;5058465;28;45500;-78
2023/06/10 11:33:54;;;;;;;;;9.67;9.67;;;;;;;;5058543;28;45275;-78
2023/06/10 11:36:19;;;;;;;;;8.00;7.67;;;;;;;;5058005;28;45374;-78
2023/06/10 11:38:45;;;;;;;;;8.67;8.67;;;;;;;;5058338;28;45206;-76
2023/06/10 11:41:17;;;;;;;;;6.00;6.00;;;;;;;;5058069;28;45375;-77
2023/06/10 11:43:43;;;;;;;;;8.00;8.00;;;;;;;;5057986;28;45462;-79
2023/06/10 11:46:08;;;;;;;;;9.33;8.67;;;;;;;;5038525;28;45347;-77
2023/06/10 11:48:34;;;;;;;;;9.67;9.67;;;;;;;;5038369;28;45221;-80
2023/06/10 11:50:59;;;;;;;;;6.00;6.00;;;;;;;;5037474;28;45928;-78
2023/06/10 11:53:24;;;;;;;;;7.00;7.00;;;;;;;;5037953;28;45351;-78
2023/06/10 11:55:50;;;;;;;;;9.00;8.00;;;;;;;;5038475;28;45284;-79
2023/06/10 11:58:18;;;;;;;;;6.67;6.00;;;;;;;;5047908;28;45480;-79
2023/06/10 12:00:44;;;;;;;;;9.33;9.33;;;;;;;;5044816;28;45439;-78
2023/06/10 12:03:10;;;;;;;;;9.00;9.00;;;;;;;;5040727;28;45447;-78
2023/06/10 12:05:35;;;;;;;;;10.33;8.67;;;;;;;;5040941;28;45378;-78
2023/06/10 12:08:10;;;;;;;;;10.00;10.00;;;;;;;;5041482;28;45388;-77
2023/06/10 12:10:42;;;;;;;;;8.67;8.67;;;;;;;;5041211;28;45966;-78
2023/06/10 12:13:08;;;;;;;;;6.67;6.67;;;;;;;;5041160;28;45362;-77
2023/06/10 12:15:34;;;;;;;;;8.67;8.67;;;;;;;;5041463;28;45429;-77
2023/06/10 12:17:59;;;;;;;;;8.33;8.00;;;;;;;;5041374;28;45555;-77
2023/06/10 12:20:26;;;;;;;;;8.67;8.33;;;;;;;;5040444;28;46248;-77
2023/06/10 12:22:51;;;;;;;;;9.00;9.00;;;;;;;;5040718;28;45665;-77
2023/06/10 12:25:16;;;;;;;;;10.67;10.67;;;;;;;;5041170;28;45441;-77
2023/06/10 12:27:51;;;;;;;;;10.33;10.33;;;;;;;;5041045;28;45911;-79
2023/06/10 12:30:20;;;;;;;;;9.67;9.00;;;;;;;;5057828;28;45383;-80
2023/06/10 12:32:47;;;;;;;;;9.00;9.00;;;;;;;;5061365;28;45283;-78
2023/06/10 12:35:13;;;;;;;;;8.00;8.00;;;;;;;;5056369;28;45434;-79
2023/06/10 12:37:39;;;;;;;;;10.00;10.00;;;;;;;;5039727;28;45626;-79
2023/06/10 12:40:11;;;;;;;;;8.67;8.33;;;;;;;;5040899;28;45544;-81
2023/06/10 12:42:36;;;;;;;;;8.33;8.33;;;;;;;;5040791;28;45452;-79
2023/06/10 12:45:02;;;;;;;;;11.00;11.00;;;;;;;;5041623;28;45292;-78
2023/06/10 12:47:49;;;;;;;;;9.33;9.33;;;;;;;;5041274;28;45378;-77
2023/06/10 12:50:14;;;;;;;;;10.00;10.00;;;;;;;;5042873;28;45408;-80
2023/06/10 12:52:40;;;;;;;;;9.33;9.33;;;;;;;;5061416;28;45251;-78
2023/06/10 12:55:06;;;;;;;;;8.67;8.33;;;;;;;;5059910;28;45427;-78
2023/06/10 12:57:31;;;;;;;;;10.00;10.00;;;;;;;;5061225;28;45252;-79
2023/06/10 13:00:03;;;;;;;;;10.33;10.33;;;;;;;;5061531;28;46012;-79
2023/06/10 13:02:28;;;;;;;;;12.67;11.67;;;;;;;;5061283;28;45340;-79
2023/06/10 13:04:53;;;;;;;;;8.67;8.67;;;;;;;;5061072;28;45456;-79
2023/06/10 13:07:18;;;;;;;;;9.00;8.33;;;;;;;;5060698;28;45689;-79
2023/06/10 13:09:44;;;;;;;;;9.00;9.00;;;;;;;;5060930;28;45335;-79
2023/06/10 13:12:09;;;;;;;;;9.67;9.00;;;;;;;;5060218;28;45578;-78
2023/06/10 13:14:37;;;;;;;;;10.67;10.67;;;;;;;;5060977;28;45322;-77
2023/06/10 13:17:03;;;;;;;;;9.67;9.67;;;;;;;;5060707;28;45179;-77
2023/06/10 13:19:28;;;;;;;;;9.00;9.00;;;;;;;;5060648;28;46318;-78
2023/06/10 13:21:53;;;;;;;;;10.00;10.00;;;;;;;;5060974;28;45321;-78
2023/06/10 13:24:20;;;;;;;;;8.00;8.00;;;;;;;;5060999;28;45319;-77
2023/06/10 13:26:45;;;;;;;;;7.67;7.67;;;;;;;;5060037;28;45342;-76
2023/06/10 13:29:14;;;;;;;;;8.67;8.67;;;;;;;;5058913;28;45965;-81
2023/06/10 13:31:40;;;;;;;;;8.00;8.00;;;;;;;;5059646;28;45402;-80
2023/06/10 13:34:05;;;;;;;;;9.33;9.33;;;;;;;;5060507;28;45527;-79
2023/06/10 13:36:30;;;;;;;;;8.00;8.00;;;;;;;;5060197;28;45311;-79
2023/06/10 13:38:55;;;;;;;;;9.00;9.00;;;;;;;;5059870;28;45402;-79
2023/06/10 13:41:20;;;;;;;;;8.67;8.67;;;;;;;;5047607;28;45482;-77
2023/06/10 13:43:46;;;;;;;;;9.33;9.00;;;;;;;;5046452;28;45519;-78
2023/06/10 13:46:11;;;;;;;;;7.33;7.33;;;;;;;;5039756;28;45287;-78
2023/06/10 13:48:36;;;;;;;;;9.00;9.00;;;;;;;;5039919;28;45289;-78
2023/06/10 13:51:01;;;;;;;;;10.33;8.67;;;;;;;;5040501;28;45254;-77
2023/06/10 13:53:27;;;;;;;;;8.00;8.00;;;;;;;;5058747;28;45375;-78
2023/06/10 13:55:52;;;;;;;;;9.00;8.00;;;;;;;;5059440;28;45271;-81
2023/06/10 13:58:17;;;;;;;;;10.00;9.67;;;;;;;;5060125;28;46247;-80
2023/06/10 14:00:42;;;;;;;;;10.33;10.00;;;;;;;;5041979;28;45220;-80
2023/06/10 14:03:07;;;;;;;;;7.67;7.67;;;;;;;;5045889;28;45402;-80
2023/06/10 14:05:33;;;;;;;;;9.33;9.33;;;;;;;;5038480;28;47320;-77
2023/06/10 14:07:58;;;;;;;;;9.67;9.67;;;;;;;;5040629;28;45447;-77
2023/06/10 14:10:24;;;;;;;;;8.67;8.67;;;;;;;;5055068;28;45668;-77
2023/06/10 14:12:49;;;;;;;;;9.00;9.00;;;;;;;;5047181;28;45336;-77
2023/06/10 14:15:14;;;;;;;;;9.33;9.33;;;;;;;;5042330;28;45441;-80
2023/06/10 14:17:40;;;;;;;;;9.00;9.00;;;;;;;;5045598;28;46435;-78
2023/06/10 14:20:05;;;;;;;;;11.00;11.00;;;;;;;;5046938;28;45332;-77
2023/06/10 14:22:30;;;;;;;;;8.67;8.67;;;;;;;;5049090;28;45228;-80
2023/06/10 14:24:56;;;;;;;;;9.67;9.00;;;;;;;;5048001;28;45383;-77